Time;durP1;ratioP1;P1;durP2;ratioP2;P2;SDS_P1;SDS_P2;PMS_P1;PMS_P2;Temp;Humidity;BMP_temperature;BMP_pressure;BME280_temperature;BME280_humidity;BME280_pressure;Samples;Min_cycle;Max_cycle;Signal;HPM_P1;HPM_P2
2022/11/12 00:01:58;;;;;;;;;;;9.50;99.90;;;;;;5105815;27;20259;-38
2022/11/12 00:04:23;;;;;;;;;;;9.50;99.90;;;;;;5113299;27;20349;-36
2022/11/12 00:06:49;;;;;;;;;;;9.50;99.90;;;;;;5093702;28;20037;-36
2022/11/12 00:09:14;;;;;;;;;;;9.50;99.90;;;;;;5098962;28;19908;-32
2022/11/12 00:11:40;;;;;;;;;;;9.50;99.90;;;;;;5113768;28;19904;-29
2022/11/12 00:14:05;;;;;;;;;;;9.50;99.90;;;;;;5113892;28;20000;-32
2022/11/12 00:16:31;;;;;;;;;;;9.40;99.90;;;;;;5111480;28;19912;-30
2022/11/12 00:18:56;;;;;;;;;;;9.40;99.90;;;;;;5093316;28;19915;-30
2022/11/12 00:21:22;;;;;;;;;;;9.40;99.90;;;;;;5110188;28;20413;-51
2022/11/12 00:23:48;;;;;;;;;;;9.40;99.90;;;;;;5094104;28;19947;-31
2022/11/12 00:26:13;;;;;;;;;;;9.40;99.90;;;;;;5097402;28;19966;-34
2022/11/12 00:28:39;;;;;;;;;;;9.40;99.90;;;;;;5096527;28;19907;-30
2022/11/12 00:31:08;;;;;;;;;;;9.30;99.90;;;;;;5113717;28;20351;-34
2022/11/12 00:33:34;;;;;;;;;;;9.30;99.90;;;;;;5103556;28;19911;-30
2022/11/12 00:35:59;;;;;;;;;;;9.30;99.90;;;;;;5110964;28;20382;-31
2022/11/12 00:38:25;;;;;;;;;;;9.20;99.90;;;;;;5109561;28;19907;-30
2022/11/12 00:40:50;;;;;;;;;;;9.30;99.90;;;;;;5096407;28;19908;-30
2022/11/12 00:43:16;;;;;;;;;;;9.30;99.90;;;;;;5100745;28;19953;-30
2022/11/12 00:45:42;;;;;;;;;;;9.30;99.90;;;;;;5112598;28;19923;-33
2022/11/12 00:48:07;;;;;;;;;;;9.20;99.90;;;;;;5110945;28;20359;-31
2022/11/12 00:50:33;;;;;;;;;;;9.20;99.90;;;;;;5112521;28;19992;-30
2022/11/12 00:52:58;;;;;;;;;;;9.20;99.90;;;;;;5104138;28;19908;-29
2022/11/12 00:55:23;;;;;;;;;;;9.20;99.90;;;;;;5092681;28;20360;-31
2022/11/12 00:57:49;;;;;;;;;;;9.20;99.90;;;;;;5094362;28;19908;-32
2022/11/12 01:00:16;;;;;;;;;;;9.20;99.90;;;;;;5095426;28;19904;-33
2022/11/12 01:02:42;;;;;;;;;;;9.20;99.90;;;;;;5102567;28;19914;-32
2022/11/12 01:05:08;;;;;;;;;;;9.20;99.90;;;;;;5113964;28;20366;-29
2022/11/12 01:07:33;;;;;;;;;;;9.10;99.90;;;;;;5111202;28;19908;-32
2022/11/12 01:09:59;;;;;;;;;;;9.10;99.90;;;;;;5116741;28;20314;-29
2022/11/12 01:12:24;;;;;;;;;;;9.10;99.90;;;;;;5102801;28;20357;-31
2022/11/12 01:14:50;;;;;;;;;;;9.00;99.90;;;;;;5096812;28;20346;-29
2022/11/12 01:17:15;;;;;;;;;;;9.00;99.90;;;;;;5098890;28;19914;-36
2022/11/12 01:19:41;;;;;;;;;;;8.90;99.90;;;;;;5095973;28;20368;-30
2022/11/12 01:22:06;;;;;;;;;;;8.90;99.90;;;;;;5095202;28;19916;-31
2022/11/12 01:24:32;;;;;;;;;;;8.80;99.90;;;;;;5094434;28;20471;-30
2022/11/12 01:26:57;;;;;;;;;;;8.80;99.90;;;;;;5097222;28;19951;-29
2022/11/12 01:29:23;;;;;;;;;;;8.70;99.90;;;;;;5100027;28;19969;-29
2022/11/12 01:31:48;;;;;;;;;;;8.70;99.90;;;;;;5099720;28;19912;-29
2022/11/12 01:34:14;;;;;;;;;;;8.60;99.90;;;;;;5107427;28;19953;-37
2022/11/12 01:36:39;;;;;;;;;;;8.60;99.90;;;;;;5097488;28;19907;-30
2022/11/12 01:39:06;;;;;;;;;;;8.60;99.90;;;;;;5107916;28;19914;-29
2022/11/12 01:41:33;;;;;;;;;;;8.60;99.90;;;;;;5110124;28;19914;-34
2022/11/12 01:44:08;;;;;;;;;;;8.60;99.90;;;;;;5096954;28;20352;-30
2022/11/12 01:46:36;;;;;;;;;;;8.60;99.90;;;;;;5102194;28;20432;-32
2022/11/12 01:49:03;;;;;;;;;;;8.70;99.90;;;;;;5101205;28;20399;-40
2022/11/12 01:51:35;;;;;;;;;;;8.70;99.90;;;;;;5098934;28;19908;-31
2022/11/12 01:54:02;;;;;;;;;;;8.80;99.90;;;;;;5112268;28;19916;-34
2022/11/12 01:56:29;;;;;;;;;;;8.80;99.90;;;;;;5114353;28;20364;-40
2022/11/12 01:58:58;;;;;;;;;;;8.90;99.90;;;;;;5102648;28;19908;-31
2022/11/12 02:01:24;;;;;;;;;;;9.00;99.90;;;;;;5100073;28;20800;-31
2022/11/12 02:03:49;;;;;;;;;;;9.00;99.90;;;;;;5101325;28;20002;-30
2022/11/12 02:06:15;;;;;;;;;;;9.00;99.90;;;;;;5095618;28;19912;-30
2022/11/12 02:08:42;;;;;;;;;;;9.10;99.90;;;;;;5097700;28;19939;-30
2022/11/12 02:11:15;;;;;;;;;;;9.20;99.90;;;;;;5106607;28;19937;-30
2022/11/12 02:13:57;;;;;;;;;;;9.20;99.90;;;;;;5102967;28;19947;-33
2022/11/12 02:16:31;;;;;;;;;;;9.30;99.90;;;;;;5098665;28;20418;-31
2022/11/12 02:18:57;;;;;;;;;;;9.30;99.90;;;;;;5110846;28;20360;-33
2022/11/12 02:21:23;;;;;;;;;;;9.30;99.90;;;;;;5105334;28;19919;-37
2022/11/12 02:23:58;;;;;;;;;;;9.30;99.90;;;;;;5106290;28;19990;-39
2022/11/12 02:26:24;;;;;;;;;;;9.30;99.90;;;;;;5100012;28;19978;-38
2022/11/12 02:28:50;;;;;;;;;;;9.30;99.90;;;;;;5095833;28;20348;-39
2022/11/12 02:31:15;;;;;;;;;;;9.30;99.90;;;;;;5094323;28;19908;-39
2022/11/12 02:33:40;;;;;;;;;;;9.40;99.90;;;;;;5102111;28;19947;-39
2022/11/12 02:36:06;;;;;;;;;;;9.40;99.90;;;;;;5111566;28;19907;-38
2022/11/12 02:38:31;;;;;;;;;;;9.30;99.90;;;;;;5105028;28;19915;-38
2022/11/12 02:40:57;;;;;;;;;;;9.40;99.90;;;;;;5104486;28;20003;-38
2022/11/12 02:43:22;;;;;;;;;;;9.40;99.90;;;;;;5094845;28;20360;-46
2022/11/12 02:45:48;;;;;;;;;;;9.30;99.90;;;;;;5096394;28;19923;-40
2022/11/12 02:48:13;;;;;;;;;;;9.30;99.90;;;;;;5104024;28;19908;-38
2022/11/12 02:50:39;;;;;;;;;;;9.30;99.90;;;;;;5108150;28;20405;-39
2022/11/12 02:53:04;;;;;;;;;;;9.30;99.90;;;;;;5106234;28;19908;-37
2022/11/12 02:55:30;;;;;;;;;;;9.40;99.90;;;;;;5106538;28;19911;-40
2022/11/12 02:57:58;;;;;;;;;;;9.40;99.90;;;;;;5101970;28;19912;-33
2022/11/12 03:00:24;;;;;;;;;;;9.40;99.90;;;;;;5098236;28;19907;-39
2022/11/12 03:02:58;;;;;;;;;;;9.40;99.90;;;;;;5113161;28;20394;-39
2022/11/12 03:05:25;;;;;;;;;;;9.40;99.90;;;;;;5098273;28;20261;-38
2022/11/12 03:07:55;;;;;;;;;;;9.40;99.90;;;;;;5104601;28;19908;-39
2022/11/12 03:10:20;;;;;;;;;;;9.40;99.90;;;;;;5100581;28;19908;-39
2022/11/12 03:12:46;;;;;;;;;;;9.40;99.90;;;;;;5100460;28;19908;-39
2022/11/12 03:15:11;;;;;;;;;;;9.50;99.90;;;;;;5099751;28;19918;-39
2022/11/12 03:17:36;;;;;;;;;;;9.40;99.90;;;;;;5103156;28;19908;-40
2022/11/12 03:20:02;;;;;;;;;;;9.40;99.90;;;;;;5093103;28;19999;-40
2022/11/12 03:22:28;;;;;;;;;;;9.30;99.90;;;;;;5101837;28;19915;-40
2022/11/12 03:24:53;;;;;;;;;;;9.30;99.90;;;;;;5100821;28;19923;-42
2022/11/12 03:27:19;;;;;;;;;;;9.30;99.90;;;;;;5100754;28;20390;-40
2022/11/12 03:29:44;;;;;;;;;;;9.30;99.90;;;;;;5095620;28;19908;-30
2022/11/12 03:32:10;;;;;;;;;;;9.30;99.90;;;;;;5111481;28;19904;-35
2022/11/12 03:34:35;;;;;;;;;;;9.40;99.90;;;;;;5102299;28;19954;-31
2022/11/12 03:37:01;;;;;;;;;;;9.40;99.90;;;;;;5095651;28;19943;-33
2022/11/12 03:39:27;;;;;;;;;;;9.40;99.90;;;;;;5098775;28;19953;-36
2022/11/12 03:41:52;;;;;;;;;;;9.40;99.90;;;;;;5098298;28;19908;-38
2022/11/12 03:44:18;;;;;;;;;;;9.40;99.90;;;;;;5103245;28;19915;-39
2022/11/12 03:46:43;;;;;;;;;;;9.40;99.90;;;;;;5094466;28;20334;-42
2022/11/12 03:49:09;;;;;;;;;;;9.40;99.90;;;;;;5093680;28;19908;-36
2022/11/12 03:51:34;;;;;;;;;;;9.40;99.90;;;;;;5104649;28;20287;-39
2022/11/12 03:54:00;;;;;;;;;;;9.40;99.90;;;;;;5094232;28;19961;-32
2022/11/12 03:56:25;;;;;;;;;;;9.40;99.90;;;;;;5094507;28;19915;-33
2022/11/12 03:58:51;;;;;;;;;;;9.30;99.90;;;;;;5098241;28;19949;-40
2022/11/12 04:01:16;;;;;;;;;;;9.20;99.90;;;;;;5104361;28;20367;-40
2022/11/12 04:03:42;;;;;;;;;;;9.20;99.90;;;;;;5103423;28;19915;-39
2022/11/12 04:08:51;;;;;;;;;;;9.00;99.90;;;;;;5097132;28;19935;-39
2022/11/12 04:11:17;;;;;;;;;;;8.90;99.90;;;;;;5099425;28;19911;-39
2022/11/12 04:13:46;;;;;;;;;;;8.90;99.90;;;;;;5097346;28;19946;-39
2022/11/12 04:21:50;;;;;;;;;;;8.70;99.90;;;;;;5106204;28;19962;-39
2022/11/12 04:27:00;;;;;;;;;;;8.60;99.90;;;;;;5100951;28;19914;-39
2022/11/12 04:32:10;;;;;;;;;;;8.50;99.90;;;;;;5107988;28;19973;-39
2022/11/12 04:34:36;;;;;;;;;;;8.50;99.90;;;;;;5104515;28;19939;-39
2022/11/12 04:37:02;;;;;;;;;;;8.40;99.90;;;;;;5103506;28;20382;-39
2022/11/12 04:39:28;;;;;;;;;;;8.40;99.90;;;;;;5101946;28;19912;-36
2022/11/12 04:47:21;;;;;;;;;;;8.30;99.90;;;;;;5093359;28;20008;-40
2022/11/12 04:49:47;;;;;;;;;;;8.30;99.90;;;;;;5101329;28;19958;-40
2022/11/12 04:52:13;;;;;;;;;;;8.20;99.90;;;;;;5093537;28;19908;-39
2022/11/12 04:54:38;;;;;;;;;;;8.20;99.90;;;;;;5096318;28;19999;-39
2022/11/12 04:57:04;;;;;;;;;;;8.20;99.90;;;;;;5112773;28;20344;-39
2022/11/12 04:59:29;;;;;;;;;;;8.20;99.90;;;;;;5094847;28;19998;-40
2022/11/12 05:01:55;;;;;;;;;;;8.20;99.90;;;;;;5090967;28;19908;-39
2022/11/12 05:04:20;;;;;;;;;;;8.10;99.90;;;;;;5103165;28;19918;-39
2022/11/12 05:06:52;;;;;;;;;;;8.10;99.90;;;;;;5112516;28;19907;-37
2022/11/12 05:09:19;;;;;;;;;;;8.00;99.90;;;;;;5101865;28;19930;-39
2022/11/12 05:11:44;;;;;;;;;;;8.00;99.90;;;;;;5094987;28;20339;-33
2022/11/12 05:14:10;;;;;;;;;;;7.90;99.90;;;;;;5098285;28;19908;-31
2022/11/12 05:16:35;;;;;;;;;;;7.90;99.90;;;;;;5111609;28;20407;-31
2022/11/12 05:19:01;;;;;;;;;;;7.80;99.90;;;;;;5110945;28;20014;-30
2022/11/12 05:24:11;;;;;;;;;;;7.80;99.90;;;;;;5099380;28;19957;-31
2022/11/12 05:26:37;;;;;;;;;;;7.80;99.90;;;;;;5100258;28;19915;-31
2022/11/12 05:29:03;;;;;;;;;;;7.70;99.90;;;;;;5092494;28;20042;-38
2022/11/12 05:31:28;;;;;;;;;;;7.60;99.90;;;;;;5097733;28;20303;-31
2022/11/12 05:33:54;;;;;;;;;;;7.60;99.90;;;;;;5103243;28;19990;-32
2022/11/12 05:36:19;;;;;;;;;;;7.60;99.90;;;;;;5113112;28;19929;-42
2022/11/12 05:38:44;;;;;;;;;;;7.60;99.90;;;;;;5104290;28;20044;-32
2022/11/12 05:41:10;;;;;;;;;;;7.50;99.90;;;;;;5098199;28;20419;-31
2022/11/12 05:43:35;;;;;;;;;;;7.50;99.90;;;;;;5097757;28;19942;-35
2022/11/12 05:46:01;;;;;;;;;;;7.50;99.90;;;;;;5103159;28;19915;-34
2022/11/12 05:48:26;;;;;;;;;;;7.50;99.90;;;;;;5108546;28;19907;-40
2022/11/12 05:50:52;;;;;;;;;;;7.50;99.90;;;;;;5108387;28;19923;-41
2022/11/12 05:53:18;;;;;;;;;;;7.40;99.90;;;;;;5096365;28;19914;-41
2022/11/12 05:55:43;;;;;;;;;;;7.40;99.90;;;;;;5110589;28;19915;-43
2022/11/12 05:58:09;;;;;;;;;;;7.40;99.90;;;;;;5107957;28;19907;-42
2022/11/12 06:00:37;;;;;;;;;;;7.30;99.90;;;;;;5102119;28;20368;-39
2022/11/12 06:03:07;;;;;;;;;;;7.30;99.90;;;;;;5103258;28;20332;-39
2022/11/12 06:05:33;;;;;;;;;;;7.40;99.90;;;;;;5102812;28;19911;-39
2022/11/12 06:07:58;;;;;;;;;;;7.40;99.90;;;;;;5107563;28;19950;-40
2022/11/12 06:10:24;;;;;;;;;;;7.50;99.90;;;;;;5095376;28;19908;-39
2022/11/12 06:12:49;;;;;;;;;;;7.50;99.90;;;;;;5109885;28;20351;-38
2022/11/12 06:15:15;;;;;;;;;;;7.60;99.90;;;;;;5105591;28;19915;-39
2022/11/12 06:17:41;;;;;;;;;;;7.60;99.90;;;;;;5107832;28;20022;-38
2022/11/12 06:20:07;;;;;;;;;;;7.60;99.90;;;;;;5099380;28;19911;-39
2022/11/12 06:22:32;;;;;;;;;;;7.60;99.90;;;;;;5113830;28;20382;-37
2022/11/12 06:24:57;;;;;;;;;;;7.60;99.90;;;;;;5102275;28;20356;-38
2022/11/12 06:27:23;;;;;;;;;;;7.50;99.90;;;;;;5112943;28;19908;-38
2022/11/12 06:29:48;;;;;;;;;;;7.50;99.90;;;;;;5094989;28;20379;-40
2022/11/12 06:32:14;;;;;;;;;;;7.50;99.90;;;;;;5107016;28;20278;-40
2022/11/12 06:34:39;;;;;;;;;;;7.50;99.90;;;;;;5095276;28;19915;-45
2022/11/12 06:37:05;;;;;;;;;;;7.40;99.90;;;;;;5099238;28;20409;-40
2022/11/12 06:39:30;;;;;;;;;;;7.30;99.90;;;;;;5094835;28;19937;-33
2022/11/12 06:41:56;;;;;;;;;;;7.30;99.90;;;;;;5099355;28;19911;-40
2022/11/12 06:44:21;;;;;;;;;;;7.20;99.90;;;;;;5102405;28;20261;-40
2022/11/12 06:46:47;;;;;;;;;;;7.20;99.90;;;;;;5096883;28;19951;-34
2022/11/12 06:49:12;;;;;;;;;;;7.20;99.90;;;;;;5109012;28;19908;-31
2022/11/12 06:51:38;;;;;;;;;;;7.20;99.90;;;;;;5107455;28;20426;-31
2022/11/12 06:54:04;;;;;;;;;;;7.20;99.90;;;;;;5112748;28;20256;-31
2022/11/12 06:56:30;;;;;;;;;;;7.20;99.90;;;;;;5097374;28;19908;-34
2022/11/12 06:58:55;;;;;;;;;;;7.20;99.90;;;;;;5092526;28;19923;-43
2022/11/12 07:01:22;;;;;;;;;;;7.20;99.90;;;;;;5100609;28;19911;-32
2022/11/12 07:03:50;;;;;;;;;;;7.20;99.90;;;;;;5103642;28;19916;-33
2022/11/12 07:06:18;;;;;;;;;;;7.20;99.90;;;;;;5110625;28;20386;-32
2022/11/12 07:08:43;;;;;;;;;;;7.20;99.90;;;;;;5094922;28;19904;-32
2022/11/12 07:11:09;;;;;;;;;;;7.20;99.90;;;;;;5097571;28;20257;-31
2022/11/12 07:13:35;;;;;;;;;;;7.20;99.90;;;;;;5094111;28;20401;-33
2022/11/12 07:16:01;;;;;;;;;;;7.20;99.90;;;;;;5094546;28;19984;-33
2022/11/12 07:18:27;;;;;;;;;;;7.30;99.90;;;;;;5113302;28;19915;-30
2022/11/12 07:20:58;;;;;;;;;;;7.30;99.90;;;;;;5105597;28;19912;-31
2022/11/12 07:23:24;;;;;;;;;;;7.30;99.90;;;;;;5099139;28;20347;-32
2022/11/12 07:25:56;;;;;;;;;;;7.40;99.90;;;;;;5102953;28;19923;-34
2022/11/12 07:28:23;;;;;;;;;;;7.40;99.90;;;;;;5104493;28;19908;-33
2022/11/12 07:30:53;;;;;;;;;;;7.50;99.90;;;;;;5102867;28;19912;-33
2022/11/12 07:33:19;;;;;;;;;;;7.60;99.90;;;;;;5091856;28;21146;-30
2022/11/12 07:35:44;;;;;;;;;;;7.60;99.90;;;;;;5111221;28;20010;-32
2022/11/12 07:38:10;;;;;;;;;;;7.70;99.90;;;;;;5113224;28;19908;-31
2022/11/12 07:40:35;;;;;;;;;;;7.70;99.90;;;;;;5098407;28;19915;-32
2022/11/12 07:43:01;;;;;;;;;;;7.70;99.90;;;;;;5126170;27;20423;-32
2022/11/12 07:45:26;;;;;;;;;;;7.80;99.90;;;;;;5101972;28;19912;-31
2022/11/12 07:50:36;;;;;;;;;;;8.00;99.90;;;;;;5093005;28;20429;-31
2022/11/12 07:53:01;;;;;;;;;;;8.10;99.90;;;;;;5092439;28;19907;-57
2022/11/12 07:55:27;;;;;;;;;;;8.10;99.90;;;;;;5100918;28;20435;-31
2022/11/12 07:57:52;;;;;;;;;;;8.10;99.90;;;;;;5093811;28;19907;-41
2022/11/12 08:00:18;;;;;;;;;;;8.20;99.90;;;;;;5083493;28;20009;-34
2022/11/12 08:02:43;;;;;;;;;;;8.20;99.90;;;;;;5086589;28;19949;-30
2022/11/12 08:05:09;;;;;;;;;;;8.30;99.90;;;;;;5090228;28;19946;-31
2022/11/12 08:07:35;;;;;;;;;;;8.40;99.90;;;;;;5083903;28;19911;-31
2022/11/12 08:10:00;;;;;;;;;;;8.40;99.90;;;;;;5092960;28;20145;-33
2022/11/12 08:12:27;;;;;;;;;;;8.50;99.90;;;;;;5095191;28;20283;-34
2022/11/12 08:14:53;;;;;;;;;;;8.60;99.90;;;;;;5101484;28;20485;-32
2022/11/12 08:17:18;;;;;;;;;;;8.60;99.90;;;;;;5095929;28;20002;-42
2022/11/12 08:19:44;;;;;;;;;;;8.70;99.90;;;;;;5093945;28;20326;-31
2022/11/12 08:22:09;;;;;;;;;;;8.80;99.90;;;;;;5112152;28;19953;-31
2022/11/12 08:24:35;;;;;;;;;;;8.90;99.90;;;;;;5111856;28;20280;-32
2022/11/12 08:27:00;;;;;;;;;;;8.90;99.90;;;;;;5098265;28;19912;-31
2022/11/12 08:29:26;;;;;;;;;;;9.00;99.90;;;;;;5102671;28;19918;-31
2022/11/12 08:31:51;;;;;;;;;;;9.10;99.90;;;;;;5093156;28;20469;-31
2022/11/12 08:34:17;;;;;;;;;;;9.10;99.90;;;;;;5101584;28;19915;-51
2022/11/12 08:36:42;;;;;;;;;;;9.20;99.90;;;;;;5092313;28;20232;-37
2022/11/12 08:39:08;;;;;;;;;;;9.20;99.90;;;;;;5114173;28;19908;-31
2022/11/12 08:41:34;;;;;;;;;;;9.40;99.90;;;;;;5098336;28;19907;-33
2022/11/12 08:43:59;;;;;;;;;;;9.50;99.90;;;;;;5098264;28;19915;-35
2022/11/12 08:46:25;;;;;;;;;;;9.50;99.90;;;;;;5097610;28;19916;-31
2022/11/12 08:48:50;;;;;;;;;;;9.60;99.90;;;;;;5103623;28;19919;-31
2022/11/12 08:51:16;;;;;;;;;;;9.60;99.90;;;;;;5097538;28;20049;-31
2022/11/12 08:53:41;;;;;;;;;;;9.70;99.90;;;;;;5113092;28;19904;-38
2022/11/12 08:56:07;;;;;;;;;;;9.70;99.90;;;;;;5092434;28;19912;-34
2022/11/12 08:58:32;;;;;;;;;;;9.80;99.90;;;;;;5091719;28;19911;-32
2022/11/12 09:01:02;;;;;;;;;;;9.80;99.90;;;;;;5093598;28;20170;-34
2022/11/12 09:03:28;;;;;;;;;;;9.90;99.90;;;;;;5108503;28;20000;-34
2022/11/12 09:05:53;;;;;;;;;;;9.90;99.90;;;;;;5096919;28;19958;-30
2022/11/12 09:08:20;;;;;;;;;;;10.00;99.90;;;;;;5090632;28;20383;-31
2022/11/12 09:10:46;;;;;;;;;;;10.10;99.90;;;;;;5096182;28;20383;-31
2022/11/12 09:13:13;;;;;;;;;;;10.20;99.90;;;;;;5111396;28;19912;-34
2022/11/12 09:15:38;;;;;;;;;;;10.30;99.90;;;;;;5114382;28;19907;-40
2022/11/12 09:18:05;;;;;;;;;;;10.40;99.90;;;;;;5105697;28;20413;-32
2022/11/12 09:20:30;;;;;;;;;;;10.50;99.90;;;;;;5104597;28;19960;-31
2022/11/12 09:23:00;;;;;;;;;;;10.50;99.90;;;;;;5113872;28;19908;-31
2022/11/12 09:25:26;;;;;;;;;;;10.60;99.90;;;;;;5108437;28;20022;-30
2022/11/12 09:27:52;;;;;;;;;;;10.60;99.90;;;;;;5106839;28;19987;-30
2022/11/12 09:30:17;;;;;;;;;;;10.60;99.90;;;;;;5110902;28;20299;-33
2022/11/12 09:32:43;;;;;;;;;;;10.60;99.90;;;;;;5112857;28;19908;-31
2022/11/12 09:35:08;;;;;;;;;;;10.70;99.90;;;;;;5109588;28;19908;-31
2022/11/12 09:37:36;;;;;;;;;;;10.80;99.90;;;;;;5115761;28;20287;-32
2022/11/12 09:40:02;;;;;;;;;;;10.90;99.90;;;;;;5110955;28;19908;-32
2022/11/12 09:42:27;;;;;;;;;;;10.90;99.90;;;;;;5114103;28;19915;-30
2022/11/12 09:44:59;;;;;;;;;;;11.10;99.90;;;;;;5112592;28;19973;-32
2022/11/12 09:47:42;;;;;;;;;;;11.10;99.90;;;;;;5108316;28;19908;-33
2022/11/12 09:50:28;;;;;;;;;;;11.10;99.90;;;;;;5101987;28;20328;-33
2022/11/12 09:53:03;;;;;;;;;;;11.10;99.90;;;;;;5110047;28;20386;-34
2022/11/12 09:55:32;;;;;;;;;;;11.20;99.90;;;;;;5095501;28;19914;-31
2022/11/12 09:57:57;;;;;;;;;;;11.30;99.90;;;;;;5094405;28;19915;-31
2022/11/12 10:00:23;;;;;;;;;;;11.30;99.90;;;;;;5093467;28;19908;-36
2022/11/12 10:02:48;;;;;;;;;;;11.40;99.90;;;;;;5112306;28;19947;-29
2022/11/12 10:05:35;;;;;;;;;;;11.60;99.90;;;;;;5115163;28;19912;-30
2022/11/12 10:08:18;;;;;;;;;;;11.70;99.90;;;;;;5099541;28;20506;-38
2022/11/12 10:10:48;;;;;;;;;;;11.90;99.90;;;;;;5093750;28;20486;-38
2022/11/12 10:13:32;;;;;;;;;;;12.00;99.90;;;;;;5091368;28;19908;-31
2022/11/12 10:19:04;;;;;;;;;;;12.20;99.90;;;;;;5109368;28;19950;-36
2022/11/12 10:21:47;;;;;;;;;;;12.30;99.90;;;;;;5099803;28;19955;-33
2022/11/12 10:24:12;;;;;;;;;;;12.40;99.90;;;;;;5110249;27;20417;-30
2022/11/12 10:26:38;;;;;;;;;;;12.50;99.90;;;;;;5109799;27;19916;-34
2022/11/12 10:29:04;;;;;;;;;;;12.60;99.90;;;;;;5095408;28;20383;-33
2022/11/12 10:31:29;;;;;;;;;;;12.80;99.90;;;;;;5117898;27;19908;-33
2022/11/12 10:34:13;;;;;;;;;;;12.90;99.90;;;;;;5103998;27;20374;-30
2022/11/12 10:36:41;;;;;;;;;;;13.00;99.90;;;;;;5120231;27;19911;-35
2022/11/12 10:39:06;;;;;;;;;;;13.00;99.90;;;;;;5113239;28;20288;-30
2022/11/12 10:41:32;;;;;;;;;;;13.10;99.90;;;;;;5112973;28;20007;-30
2022/11/12 10:43:59;;;;;;;;;;;13.20;99.90;;;;;;5112500;28;19976;-31
2022/11/12 10:46:35;;;;;;;;;;;13.10;99.90;;;;;;5101351;28;19926;-29
2022/11/12 10:49:02;;;;;;;;;;;13.20;99.90;;;;;;5115009;27;20028;-32
2022/11/12 10:51:32;;;;;;;;;;;13.20;99.90;;;;;;5116886;27;20275;-33
2022/11/12 10:53:58;;;;;;;;;;;13.30;99.90;;;;;;5106011;27;19994;-34
2022/11/12 10:56:25;;;;;;;;;;;13.40;99.90;;;;;;5105804;27;20010;-43
2022/11/12 10:59:09;;;;;;;;;;;13.40;99.90;;;;;;5107279;28;19947;-45
2022/11/12 11:01:35;;;;;;;;;;;13.50;99.90;;;;;;5118967;27;19912;-33
2022/11/12 11:04:01;;;;;;;;;;;13.60;99.90;;;;;;5113950;28;20275;-32
2022/11/12 11:06:26;;;;;;;;;;;13.60;99.90;;;;;;5095817;28;20364;-35
2022/11/12 11:08:53;;;;;;;;;;;13.80;99.90;;;;;;5095470;28;19908;-35
2022/11/12 11:11:20;;;;;;;;;;;13.80;99.90;;;;;;5112135;28;20291;-34
2022/11/12 11:13:47;;;;;;;;;;;13.80;99.90;;;;;;5093775;28;20427;-38
2022/11/12 11:16:22;;;;;;;;;;;13.80;99.90;;;;;;5099379;28;19911;-32
2022/11/12 11:18:51;;;;;;;;;;;13.90;99.90;;;;;;5108216;28;19908;-32
2022/11/12 11:21:19;;;;;;;;;;;14.10;99.90;;;;;;5097364;28;20545;-36
2022/11/12 11:23:47;;;;;;;;;;;14.10;99.90;;;;;;5103332;27;20390;-30
2022/11/12 11:26:18;;;;;;;;;;;14.20;99.90;;;;;;5104427;27;20015;-33
2022/11/12 11:28:58;;;;;;;;;;;14.20;99.90;;;;;;5120611;27;19908;-33
2022/11/12 11:31:30;;;;;;;;;;;14.40;99.90;;;;;;5105448;28;19994;-31
2022/11/12 11:33:55;;;;;;;;;;;14.50;99.90;;;;;;5106868;28;20367;-31
2022/11/12 11:36:44;;;;;;;;;;;14.50;99.90;;;;;;5096017;28;19915;-31
2022/11/12 11:39:09;;;;;;;;;;;14.60;99.90;;;;;;5094925;28;20314;-31
2022/11/12 11:41:54;;;;;;;;;;;14.60;99.90;;;;;;5097290;28;19907;-31
2022/11/12 11:44:29;;;;;;;;;;;14.70;99.90;;;;;;5093312;28;19923;-30
2022/11/12 11:47:10;;;;;;;;;;;14.80;99.90;;;;;;5098534;28;19984;-31
2022/11/12 11:49:48;;;;;;;;;;;14.90;99.90;;;;;;5096520;28;19908;-33
2022/11/12 11:52:26;;;;;;;;;;;15.00;99.90;;;;;;5106561;28;20005;-31
2022/11/12 11:55:10;;;;;;;;;;;15.10;99.90;;;;;;5097040;28;19908;-30
2022/11/12 11:57:58;;;;;;;;;;;15.20;99.90;;;;;;5095611;28;19907;-32
2022/11/12 12:00:24;;;;;;;;;;;15.20;99.90;;;;;;5099353;27;19941;-40
2022/11/12 12:02:53;;;;;;;;;;;15.20;99.90;;;;;;5090549;28;20347;-34
2022/11/12 12:05:18;;;;;;;;;;;15.30;99.90;;;;;;5090826;28;19937;-33
2022/11/12 12:07:54;;;;;;;;;;;15.30;99.90;;;;;;5097063;28;19908;-34
2022/11/12 12:10:26;;;;;;;;;;;15.30;99.90;;;;;;5091805;28;20356;-32
2022/11/12 12:13:03;;;;;;;;;;;15.40;99.90;;;;;;5093270;28;20367;-32
2022/11/12 12:15:36;;;;;;;;;;;15.60;99.90;;;;;;5093108;28;19953;-39
2022/11/12 12:18:24;;;;;;;;;;;15.80;99.90;;;;;;5095252;28;19946;-33
2022/11/12 12:20:57;;;;;;;;;;;15.90;99.90;;;;;;5092088;28;19919;-31
2022/11/12 12:23:32;;;;;;;;;;;15.90;99.90;;;;;;5095205;28;20351;-31
2022/11/12 12:25:59;;;;;;;;;;;15.90;99.90;;;;;;5106976;28;19971;-31
2022/11/12 12:28:46;;;;;;;;;;;15.90;99.90;;;;;;5105726;28;19915;-34
2022/11/12 12:31:17;;;;;;;;;;;15.90;99.90;;;;;;5095313;28;19922;-31
2022/11/12 12:33:53;;;;;;;;;;;16.00;99.90;;;;;;5092664;28;19952;-31
2022/11/12 12:36:24;;;;;;;;;;;16.00;99.90;;;;;;5111858;28;20321;-31
2022/11/12 12:38:52;;;;;;;;;;;16.00;99.90;;;;;;5099015;28;20256;-31
2022/11/12 12:41:26;;;;;;;;;;;16.20;99.90;;;;;;5095801;28;20326;-31
2022/11/12 12:43:54;;;;;;;;;;;16.30;99.90;;;;;;5097794;28;19912;-32
2022/11/12 12:46:21;;;;;;;;;;;16.40;99.90;;;;;;5093016;28;19919;-31
2022/11/12 12:48:47;;;;;;;;;;;16.40;99.90;;;;;;5094397;28;19908;-34
2022/11/12 12:51:13;;;;;;;;;;;16.40;99.90;;;;;;5093123;28;19938;-37
2022/11/12 12:53:39;;;;;;;;;;;16.50;99.90;;;;;;5095258;28;20031;-32
2022/11/12 12:56:05;;;;;;;;;;;16.50;99.90;;;;;;5106790;28;19969;-40
2022/11/12 12:58:32;;;;;;;;;;;16.50;99.90;;;;;;5114769;28;20333;-31
2022/11/12 13:00:59;;;;;;;;;;;16.30;99.90;;;;;;5102895;28;19923;-31
2022/11/12 13:03:43;;;;;;;;;;;16.40;99.90;;;;;;5111386;28;19908;-36
2022/11/12 13:06:24;;;;;;;;;;;16.40;99.90;;;;;;5105517;28;19919;-37
2022/11/12 13:08:49;;;;;;;;;;;16.60;99.90;;;;;;5099679;28;19914;-35
2022/11/12 13:12:20;;;;;;;;;;;16.70;99.90;;;;;;5096750;28;20364;-36
2022/11/12 13:14:37;;;;;;;;;;;16.70;99.90;;;;;;5097003;28;19957;-34
2022/11/12 13:17:05;;;;;;;;;;;16.70;99.90;;;;;;5101643;28;20351;-31
2022/11/12 13:19:30;;;;;;;;;;;16.80;99.90;;;;;;5109130;28;20016;-32
2022/11/12 13:22:15;;;;;;;;;;;16.70;99.90;;;;;;5091443;27;20347;-37
2022/11/12 13:24:59;;;;;;;;;;;16.70;99.90;;;;;;5104053;28;20406;-36
2022/11/12 13:27:42;;;;;;;;;;;16.70;99.90;;;;;;5114173;28;19969;-33
2022/11/12 13:30:09;;;;;;;;;;;16.70;99.90;;;;;;5108557;28;19916;-37
2022/11/12 13:32:35;;;;;;;;;;;16.80;99.90;;;;;;5096245;28;19907;-30
2022/11/12 13:35:20;;;;;;;;;;;17.00;99.90;;;;;;5112390;28;20421;-31
2022/11/12 13:37:51;;;;;;;;;;;17.10;99.90;;;;;;5115583;28;20384;-31
2022/11/12 13:40:17;;;;;;;;;;;17.00;99.90;;;;;;5103320;28;19918;-31
2022/11/12 13:42:48;;;;;;;;;;;17.10;99.90;;;;;;5101344;28;20431;-30
2022/11/12 13:45:15;;;;;;;;;;;17.10;99.90;;;;;;5094785;28;20318;-32
2022/11/12 13:47:41;;;;;;;;;;;17.20;99.90;;;;;;5094533;28;19908;-36
2022/11/12 13:50:08;;;;;;;;;;;17.20;99.90;;;;;;5086332;28;19966;-31
2022/11/12 13:52:34;;;;;;;;;;;17.30;99.90;;;;;;5094262;28;20368;-30
2022/11/12 13:55:12;;;;;;;;;;;17.30;99.90;;;;;;5096213;28;20387;-34
2022/11/12 13:57:37;;;;;;;;;;;17.30;99.90;;;;;;5095384;28;19908;-37
2022/11/12 14:00:22;;;;;;;;;;;17.30;99.90;;;;;;5095386;28;19922;-31
2022/11/12 14:02:53;;;;;;;;;;;17.40;99.90;;;;;;5099430;28;20390;-37
2022/11/12 14:05:20;;;;;;;;;;;17.40;99.90;;;;;;5105017;28;20380;-33
2022/11/12 14:08:09;;;;;;;;;;;17.40;99.90;;;;;;5116384;28;19920;-34
2022/11/12 14:10:53;;;;;;;;;;;17.40;99.90;;;;;;5094764;28;19947;-39
2022/11/12 14:13:28;;;;;;;;;;;17.40;99.90;;;;;;5097499;28;20275;-32
2022/11/12 14:15:53;;;;;;;;;;;17.50;99.90;;;;;;5099800;28;19908;-32
2022/11/12 14:18:27;;;;;;;;;;;17.50;99.90;;;;;;5099560;28;20378;-33
2022/11/12 14:20:53;;;;;;;;;;;17.40;99.90;;;;;;5094608;28;19922;-38
2022/11/12 14:23:20;;;;;;;;;;;17.30;99.90;;;;;;5094655;28;20275;-35
2022/11/12 14:25:47;;;;;;;;;;;17.30;99.90;;;;;;5093184;28;19920;-33
2022/11/12 14:28:22;;;;;;;;;;;17.30;99.90;;;;;;5095347;28;20279;-33
2022/11/12 14:30:47;;;;;;;;;;;17.30;99.90;;;;;;5095570;28;19908;-31
2022/11/12 14:33:17;;;;;;;;;;;17.20;99.90;;;;;;5107748;28;19915;-50
2022/11/12 14:35:42;;;;;;;;;;;17.20;99.90;;;;;;5096818;28;19907;-33
2022/11/12 14:38:08;;;;;;;;;;;17.30;99.90;;;;;;5100308;28;20391;-34
2022/11/12 14:40:51;;;;;;;;;;;17.20;99.90;;;;;;5098845;28;19908;-30
2022/11/12 14:43:19;;;;;;;;;;;17.10;99.90;;;;;;5108365;28;19907;-35
2022/11/12 14:45:48;;;;;;;;;;;17.10;99.90;;;;;;5097677;28;19912;-32
2022/11/12 14:48:15;;;;;;;;;;;17.10;99.90;;;;;;5091570;28;20496;-31
2022/11/12 14:50:40;;;;;;;;;;;17.10;99.90;;;;;;5106731;28;19907;-37
2022/11/12 14:53:18;;;;;;;;;;;17.20;99.90;;;;;;5098560;28;20395;-32
2022/11/12 14:55:46;;;;;;;;;;;17.20;99.90;;;;;;5100885;28;19998;-36
2022/11/12 14:58:13;;;;;;;;;;;17.10;99.90;;;;;;5092728;28;20010;-41
2022/11/12 15:00:43;;;;;;;;;;;17.00;99.90;;;;;;5103635;28;19923;-33